Fort Lauderdale Executive Airport
KFXE : now visible

Airfield :











YOU CAN JOIN US ON...

 
LOGIN :

Register | Disclaimer

   EN    FR    IT 

 









Legend :    VFR   Marginal VFR   IFR   Intensive IFR   Very Intensive IFR
Visi :
Ceiling :
>= 8 km
>= 3000ft
5 to 8 km
1000 to 3000 ft
1500m to 5 km
500 to 1000 ft
800 to 1500m
200 to 500 ft
< 800m
< 200 ft
Symbols :   Thunderstorms  Fog  Heavy snow  Heavy precipitations  Wind > 20 kt






- Airport Elevation : 13 ft


KFXE - Fort Lauderdale Executive

CURRENT METAR :
  • 212053Z 00000KT 10SM -RA FEW034 FEW046 BKN060 25/24 A2996 RMK AO2 RAE04B42 SLP146 P0000 60031 T02500244 56012

EXPIRED METARs :
  • 211953Z VRB03KT 5SM -RA BR FEW031 OVC050 23/23 A2996 RMK AO2 SLP147 P0011 T02330233
  • 211853Z 00000KT 10SM -RA SCT023 BKN036 BKN049 24/23 A2997 RMK AO2 RAB14 PRESFR SLP150 P0020 T02390233
  • 211831Z 21008KT 2SM +RA BR BKN023 BKN049 OVC060 24/22 A2999 RMK AO2 RAB14 P0017 T02440222

TAF KFXE
Valid from the 21 at 21:00 until the 22 at 18:00 UTC


212031Z 2121/2218 27008KT P6SM VCTS SCT025CB BKN050
FM220000 30007KT P6SM SCT025
FM220800 33008KT P6SM SCT050
FM221400 02010KT P6SM SCT040
KZMA FIR / North America



MET'MAP, your aeronautical weather chart ! - Copyright ORBIFLY December 2007 - Disclaimer

ORBIFLY MET'MAP TEAM :

Programming & Development : Alexandra Zaïnal
Concept & original design : Baudouin d'Aumeries
Assistance for programming : Marc-Olivier Méhu
Technical & hardware support : Manuel Goepfert

Contact : metmap@orbifly.com




SOURCES & CREDITS :

   NOAA       Earth
Advisory